createdAt,value
2023-05-23T00:02:17.025Z,15.66
2023-05-23T00:04:44.555Z,15.65
2023-05-23T00:07:11.865Z,15.61
2023-05-23T00:09:39.342Z,15.58
2023-05-23T00:12:07.225Z,15.54
2023-05-23T00:14:35.438Z,15.52
2023-05-23T00:17:03.018Z,15.49
2023-05-23T00:19:30.638Z,15.57
2023-05-23T00:21:58.683Z,15.45
2023-05-23T00:24:27.224Z,15.31
2023-05-23T00:26:54.595Z,15.25
2023-05-23T00:29:21.976Z,15.23
2023-05-23T00:31:49.746Z,15.50
2023-05-23T00:34:20.200Z,15.31
2023-05-23T00:36:48.101Z,15.17
2023-05-23T00:39:19.929Z,15.37
2023-05-23T00:41:52.932Z,15.45
2023-05-23T00:44:21.899Z,15.43
2023-05-23T00:46:53.258Z,15.26
2023-05-23T00:49:21.373Z,15.07
2023-05-23T00:51:52.196Z,15.15
2023-05-23T00:54:24.822Z,15.14
2023-05-23T00:56:52.422Z,14.69
2023-05-23T00:59:21.394Z,14.63
2023-05-23T01:01:51.227Z,14.90
2023-05-23T01:04:20.095Z,15.15
2023-05-23T01:06:49.258Z,15.21
2023-05-23T01:09:17.161Z,15.05
2023-05-23T01:12:22.116Z,14.85
2023-05-23T01:15:13.382Z,14.90
2023-05-23T01:17:59.844Z,14.80
2023-05-23T01:20:33.151Z,14.81
2023-05-23T01:23:21.769Z,14.82
2023-05-23T01:26:01.139Z,14.71
2023-05-23T01:28:32.773Z,14.66
2023-05-23T01:31:02.861Z,14.59
2023-05-23T01:33:32.519Z,14.68
2023-05-23T01:36:03.678Z,14.55
2023-05-23T01:38:31.072Z,14.44
2023-05-23T01:40:58.671Z,14.44
2023-05-23T01:43:26.145Z,14.25
2023-05-23T01:45:54.456Z,14.37
2023-05-23T01:48:22.194Z,14.42
2023-05-23T01:50:49.863Z,14.37
2023-05-23T01:53:20.465Z,14.54
2023-05-23T01:55:48.019Z,14.62
2023-05-23T01:58:15.390Z,14.77
2023-05-23T02:00:42.776Z,14.49
2023-05-23T02:03:11.814Z,14.39
2023-05-23T02:05:39.488Z,14.51
2023-05-23T02:08:07.512Z,14.22
2023-05-23T02:10:35.028Z,14.39
2023-05-23T02:13:02.288Z,14.46
2023-05-23T02:15:30.351Z,14.47
2023-05-23T02:17:58.857Z,14.49
2023-05-23T02:20:27.215Z,14.51
2023-05-23T02:22:54.555Z,14.22
2023-05-23T02:25:22.324Z,14.18
2023-05-23T02:27:49.829Z,14.41
2023-05-23T02:30:17.199Z,14.27
2023-05-23T02:32:44.635Z,14.28
2023-05-23T02:35:12.657Z,14.30
2023-05-23T02:37:39.945Z,14.30
2023-05-23T02:40:08.094Z,14.47
2023-05-23T02:42:36.727Z,14.50
2023-05-23T02:45:04.437Z,14.54
2023-05-23T02:47:31.824Z,14.47
2023-05-23T02:49:59.131Z,14.41
2023-05-23T02:52:26.777Z,14.40
2023-05-23T02:54:54.220Z,14.38
2023-05-23T02:57:22.011Z,14.15
2023-05-23T02:59:49.483Z,13.91
2023-05-23T03:02:16.946Z,13.90
2023-05-23T03:04:44.485Z,13.73
2023-05-23T03:07:24.557Z,13.91
2023-05-23T03:09:56.857Z,13.69
2023-05-23T03:12:24.225Z,13.67
2023-05-23T03:14:51.728Z,13.66
2023-05-23T03:17:19.019Z,13.51
2023-05-23T03:19:46.431Z,13.46
2023-05-23T03:22:13.704Z,13.52
2023-05-23T03:24:43.149Z,13.28
2023-05-23T03:27:11.693Z,13.31
2023-05-23T03:29:39.115Z,13.34
2023-05-23T03:32:06.905Z,13.28
2023-05-23T03:34:36.688Z,13.25
2023-05-23T03:37:04.304Z,13.12
2023-05-23T03:39:31.605Z,13.19
2023-05-23T03:41:58.982Z,13.11
2023-05-23T03:44:26.742Z,13.02
2023-05-23T03:46:54.055Z,13.08
2023-05-23T03:49:21.446Z,13.01
2023-05-23T03:51:48.805Z,13.10
2023-05-23T03:54:18.173Z,13.22
2023-05-23T03:56:46.042Z,13.22
2023-05-23T03:59:13.378Z,13.09
2023-05-23T04:01:41.278Z,12.88
2023-05-23T04:04:09.248Z,12.89
2023-05-23T04:06:38.376Z,13.03
2023-05-23T04:09:06.550Z,13.24
2023-05-23T04:11:38.692Z,13.43
2023-05-23T04:14:06.061Z,13.27
2023-05-23T04:16:36.357Z,13.32
2023-05-23T04:19:05.911Z,13.08
2023-05-23T04:21:34.303Z,12.85
2023-05-23T04:24:09.895Z,12.59
2023-05-23T04:26:37.276Z,12.75
2023-05-23T04:29:06.165Z,13.05
2023-05-23T04:31:34.381Z,12.87
2023-05-23T04:34:02.706Z,12.75
2023-05-23T04:36:31.526Z,12.97
2023-05-23T04:38:59.472Z,12.86
2023-05-23T04:41:28.382Z,12.92
2023-05-23T04:44:06.153Z,12.70
2023-05-23T04:46:45.339Z,12.88
2023-05-23T04:49:34.355Z,12.92
2023-05-23T04:52:01.545Z,13.24
2023-05-23T04:54:29.856Z,13.15
2023-05-23T04:56:59.516Z,13.13
2023-05-23T04:59:28.559Z,13.17
2023-05-23T05:01:56.334Z,13.09
2023-05-23T05:04:23.945Z,13.17
2023-05-23T05:06:52.587Z,13.11
2023-05-23T05:09:22.006Z,13.22
2023-05-23T05:11:50.048Z,13.10
2023-05-23T05:14:17.311Z,13.09
2023-05-23T05:16:46.051Z,13.09
2023-05-23T05:19:13.507Z,13.16
2023-05-23T05:21:41.000Z,13.17
2023-05-23T05:24:11.211Z,13.22
2023-05-23T05:26:38.441Z,13.12
2023-05-23T05:29:06.066Z,12.96
2023-05-23T05:31:33.833Z,12.96
2023-05-23T05:34:01.399Z,13.11
2023-05-23T05:36:28.684Z,13.20
2023-05-23T05:38:56.130Z,13.15
2023-05-23T05:41:23.422Z,13.02
2023-05-23T05:43:53.758Z,13.11
2023-05-23T05:46:21.998Z,13.20
2023-05-23T05:48:49.922Z,13.12
2023-05-23T05:51:18.494Z,13.22
2023-05-23T05:53:46.415Z,13.24
2023-05-23T05:56:14.001Z,13.27
2023-05-23T05:58:41.657Z,13.58
2023-05-23T06:01:12.556Z,13.56
2023-05-23T06:03:40.204Z,13.60
2023-05-23T06:06:09.005Z,13.57
2023-05-23T06:08:38.286Z,13.61
2023-05-23T06:11:05.666Z,13.75
2023-05-23T06:13:32.953Z,13.67
2023-05-23T06:16:00.437Z,13.52
2023-05-23T06:18:27.777Z,13.68
2023-05-23T06:20:55.946Z,13.92
2023-05-23T06:23:23.240Z,13.85
2023-05-23T06:25:50.565Z,13.80
2023-05-23T06:28:18.046Z,13.57
2023-05-23T06:30:46.779Z,13.60
2023-05-23T06:33:14.365Z,13.58
2023-05-23T06:35:43.456Z,13.67
2023-05-23T06:38:10.791Z,13.77
2023-05-23T06:40:38.397Z,13.92
2023-05-23T06:43:05.856Z,13.77
2023-05-23T06:45:49.908Z,13.65
2023-05-23T06:48:17.403Z,13.94
2023-05-23T06:50:46.243Z,13.66
2023-05-23T06:53:15.280Z,13.44
2023-05-23T06:55:43.450Z,13.44
2023-05-23T06:58:14.773Z,13.43
2023-05-23T07:00:42.518Z,13.32
2023-05-23T07:03:32.780Z,13.57
2023-05-23T07:06:04.739Z,13.57
2023-05-23T07:08:32.460Z,13.69
2023-05-23T07:11:01.465Z,13.90
2023-05-23T07:13:35.303Z,14.08
2023-05-23T07:16:02.744Z,14.24
2023-05-23T07:18:31.812Z,14.19
2023-05-23T07:20:59.514Z,14.27
2023-05-23T07:23:27.079Z,14.55
2023-05-23T07:28:30.273Z,14.24
2023-05-23T07:30:58.738Z,14.42
2023-05-23T07:33:26.526Z,14.52
2023-05-23T07:35:59.244Z,14.41
2023-05-23T07:38:26.911Z,14.29
2023-05-23T07:41:03.166Z,14.03
2023-05-23T07:43:38.077Z,14.25
2023-05-23T07:46:05.568Z,14.29
2023-05-23T07:48:33.333Z,14.63
2023-05-23T07:51:01.170Z,14.53
2023-05-23T07:53:28.836Z,14.32
2023-05-23T07:55:56.797Z,14.46
2023-05-23T07:58:27.274Z,14.58
2023-05-23T08:00:54.566Z,14.19
2023-05-23T08:03:40.760Z,14.34
2023-05-23T08:06:14.495Z,14.52
2023-05-23T08:08:43.732Z,14.27
2023-05-23T08:11:11.103Z,14.39
2023-05-23T08:13:44.640Z,14.46
2023-05-23T08:16:31.995Z,14.20
2023-05-23T08:19:00.308Z,14.32
2023-05-23T08:21:28.579Z,14.03
2023-05-23T08:23:55.915Z,14.30
2023-05-23T08:26:23.204Z,14.50
2023-05-23T08:28:51.449Z,15.02
2023-05-23T08:31:19.370Z,15.24
2023-05-23T08:33:48.266Z,15.14
2023-05-23T08:36:15.813Z,14.78
2023-05-23T08:38:44.964Z,14.78
2023-05-23T08:41:23.521Z,14.74
2023-05-23T08:43:55.860Z,14.66
2023-05-23T08:46:28.340Z,14.61
2023-05-23T08:48:56.433Z,14.66
2023-05-23T08:51:26.896Z,14.91
2023-05-23T08:53:57.378Z,15.08
2023-05-23T08:56:26.136Z,14.47
2023-05-23T08:58:53.596Z,14.48
2023-05-23T09:01:22.723Z,14.59
2023-05-23T09:03:53.606Z,14.53
2023-05-23T09:06:27.063Z,14.70
2023-05-23T09:08:54.959Z,14.59
2023-05-23T09:11:25.166Z,14.70
2023-05-23T09:13:53.191Z,14.70
2023-05-23T09:16:23.132Z,14.86
2023-05-23T09:18:54.721Z,14.86
2023-05-23T09:21:24.711Z,14.60
2023-05-23T09:24:07.310Z,14.62
2023-05-23T09:26:35.730Z,14.56
2023-05-23T09:29:06.230Z,14.89
2023-05-23T09:31:33.593Z,15.02
2023-05-23T09:34:02.990Z,14.90
2023-05-23T09:36:32.676Z,15.07
2023-05-23T09:39:05.528Z,15.22
2023-05-23T09:41:35.858Z,15.15
2023-05-23T09:44:09.200Z,15.08
2023-05-23T09:46:38.550Z,15.15
2023-05-23T09:49:18.095Z,15.30
2023-05-23T09:52:07.468Z,15.42
2023-05-23T09:54:35.073Z,15.18
2023-05-23T09:57:03.072Z,14.72
2023-05-23T09:59:32.185Z,14.62
2023-05-23T10:02:00.979Z,14.46
2023-05-23T10:04:31.587Z,14.51
2023-05-23T10:07:04.278Z,14.44
2023-05-23T10:09:33.904Z,14.63
2023-05-23T10:12:13.610Z,14.48
2023-05-23T10:14:44.698Z,14.48
2023-05-23T10:17:17.320Z,14.66
2023-05-23T10:19:50.547Z,14.89
2023-05-23T10:22:18.697Z,14.75
2023-05-23T10:24:46.672Z,14.68
2023-05-23T10:27:14.617Z,14.65
2023-05-23T10:29:42.014Z,14.70
2023-05-23T10:32:10.032Z,14.97
2023-05-23T10:34:41.903Z,15.15
2023-05-23T10:37:14.651Z,15.05
2023-05-23T10:39:50.271Z,14.76
2023-05-23T10:42:20.845Z,14.70
2023-05-23T10:44:48.234Z,14.69
2023-05-23T10:47:27.210Z,14.94
2023-05-23T10:49:55.556Z,14.92
2023-05-23T10:52:26.451Z,14.96
2023-05-23T10:54:56.335Z,15.07
2023-05-23T10:57:29.032Z,15.18
2023-05-23T10:59:56.566Z,14.95
2023-05-23T11:02:29.164Z,15.12
2023-05-23T11:05:19.624Z,15.33
2023-05-23T11:07:48.086Z,15.28
2023-05-23T11:10:15.359Z,15.20
2023-05-23T11:12:44.269Z,15.31
2023-05-23T11:15:18.386Z,15.39
2023-05-23T11:17:57.240Z,15.16
2023-05-23T11:20:27.504Z,15.06
2023-05-23T11:23:00.862Z,15.18
2023-05-23T11:25:41.522Z,15.30
2023-05-23T11:28:10.647Z,15.49
2023-05-23T11:30:39.092Z,15.38
2023-05-23T11:33:13.540Z,15.46
2023-05-23T11:35:46.293Z,15.46
2023-05-23T11:38:17.424Z,15.46
2023-05-23T11:40:47.105Z,15.72
2023-05-23T11:43:19.968Z,15.56
2023-05-23T11:45:47.558Z,15.73
2023-05-23T11:48:16.771Z,15.78
2023-05-23T11:50:54.293Z,15.88
2023-05-23T11:53:25.473Z,15.91
2023-05-23T11:56:00.287Z,16.11
2023-05-23T11:58:33.781Z,16.33
2023-05-23T12:01:06.534Z,16.41
2023-05-23T12:03:35.221Z,16.47
2023-05-23T12:06:02.809Z,16.46
2023-05-23T12:08:30.483Z,16.47
2023-05-23T12:10:58.856Z,16.20
2023-05-23T12:13:28.632Z,16.20
2023-05-23T12:15:57.162Z,16.33
2023-05-23T12:18:31.868Z,16.68
2023-05-23T12:21:10.807Z,16.79
2023-05-23T12:23:39.715Z,16.70
2023-05-23T12:26:07.885Z,16.67
2023-05-23T12:28:36.749Z,16.71
2023-05-23T12:31:18.198Z,17.13
2023-05-23T12:33:47.978Z,16.84
2023-05-23T12:36:22.994Z,16.82
2023-05-23T12:38:50.365Z,17.15
2023-05-23T12:41:20.037Z,17.11
2023-05-23T12:43:52.239Z,17.44
2023-05-23T12:46:20.867Z,17.58
2023-05-23T12:48:48.262Z,17.48
2023-05-23T12:51:16.250Z,17.59
2023-05-23T12:53:43.850Z,17.80
2023-05-23T12:56:11.405Z,17.78
2023-05-23T12:58:38.842Z,17.91
2023-05-23T13:01:06.344Z,17.90
2023-05-23T13:03:33.778Z,17.95
2023-05-23T13:06:01.222Z,17.84
2023-05-23T13:08:29.424Z,17.97
2023-05-23T13:10:57.215Z,18.38
2023-05-23T13:13:24.899Z,18.30
2023-05-23T13:15:52.270Z,18.27
2023-05-23T13:18:19.763Z,18.22
2023-05-23T13:20:47.074Z,18.38
2023-05-23T13:23:14.598Z,18.40
2023-05-23T13:25:42.205Z,18.66
2023-05-23T13:28:10.007Z,18.42
2023-05-23T13:30:37.263Z,18.58
2023-05-23T13:33:05.157Z,18.70
2023-05-23T13:35:32.550Z,18.74
2023-05-23T13:37:59.841Z,18.41
2023-05-23T13:40:27.037Z,18.46
2023-05-23T13:42:54.305Z,18.44
2023-05-23T13:45:23.268Z,18.58
2023-05-23T13:47:50.677Z,18.94
2023-05-23T13:50:18.163Z,19.07
2023-05-23T13:52:49.076Z,19.04
2023-05-23T13:55:18.697Z,18.85
2023-05-23T13:57:46.237Z,18.58
2023-05-23T14:00:14.538Z,18.68
2023-05-23T14:02:42.217Z,18.68
2023-05-23T14:05:09.808Z,18.66
2023-05-23T14:07:37.983Z,18.72
2023-05-23T14:10:07.142Z,18.76
2023-05-23T14:12:34.464Z,18.48
2023-05-23T14:15:01.864Z,18.40
2023-05-23T14:17:29.156Z,18.71
2023-05-23T14:19:56.479Z,18.76
2023-05-23T14:22:23.958Z,18.32
2023-05-23T14:24:51.195Z,18.33
2023-05-23T14:27:19.127Z,18.19
2023-05-23T14:29:47.263Z,17.99
2023-05-23T14:32:14.740Z,18.09
2023-05-23T14:34:42.250Z,18.41
2023-05-23T14:37:09.748Z,18.26
2023-05-23T14:39:37.198Z,18.04
2023-05-23T14:42:04.894Z,18.26
2023-05-23T14:44:32.560Z,18.35
2023-05-23T14:46:59.840Z,18.09
2023-05-23T14:49:27.141Z,17.89
2023-05-23T14:51:54.673Z,17.72
2023-05-23T14:54:22.080Z,17.76
2023-05-23T14:56:51.314Z,17.92
2023-05-23T14:59:20.526Z,18.18
2023-05-23T15:01:48.043Z,18.21
2023-05-23T15:04:15.759Z,18.24
2023-05-23T15:06:43.244Z,17.86
2023-05-23T15:09:10.679Z,17.87
2023-05-23T15:11:38.946Z,17.38
2023-05-23T15:14:06.633Z,17.62
2023-05-23T15:16:35.191Z,17.53
2023-05-23T15:19:03.440Z,17.68
2023-05-23T15:21:32.046Z,17.88
2023-05-23T15:23:59.849Z,17.55
2023-05-23T15:26:27.477Z,17.40
2023-05-23T15:28:54.930Z,17.69
2023-05-23T15:31:22.468Z,17.41
2023-05-23T15:33:49.822Z,17.70
2023-05-23T15:36:17.217Z,17.77
2023-05-23T15:38:44.931Z,17.47
2023-05-23T15:41:12.563Z,17.56
2023-05-23T15:43:39.941Z,17.58
2023-05-23T15:46:07.418Z,17.55
2023-05-23T15:48:34.835Z,17.28
2023-05-23T15:51:02.109Z,17.50
2023-05-23T15:53:34.261Z,17.47
2023-05-23T15:56:04.688Z,17.31
2023-05-23T15:58:32.373Z,17.00
2023-05-23T16:00:59.817Z,17.07
2023-05-23T16:03:27.273Z,17.35
2023-05-23T16:05:54.836Z,17.46
2023-05-23T16:08:22.100Z,16.99
2023-05-23T16:10:50.604Z,16.64
2023-05-23T16:13:18.222Z,16.60
2023-05-23T16:15:45.964Z,16.71
2023-05-23T16:18:14.926Z,16.60
2023-05-23T16:20:42.331Z,16.74
2023-05-23T16:23:09.639Z,16.62
2023-05-23T16:25:36.925Z,16.76
2023-05-23T16:28:04.158Z,16.69
2023-05-23T16:30:31.705Z,16.62
2023-05-23T16:32:59.791Z,16.75
2023-05-23T16:35:27.321Z,16.88
2023-05-23T16:37:54.930Z,16.79
2023-05-23T16:40:22.173Z,16.80
2023-05-23T16:42:49.480Z,16.96
2023-05-23T16:45:16.831Z,17.17
2023-05-23T16:47:44.103Z,17.30
2023-05-23T16:50:11.923Z,17.15
2023-05-23T16:52:42.251Z,17.07
2023-05-23T16:55:09.924Z,16.92
2023-05-23T16:57:37.521Z,17.07
2023-05-23T17:00:05.612Z,17.10
2023-05-23T17:02:33.129Z,17.03
2023-05-23T17:05:00.589Z,16.84
2023-05-23T17:07:27.861Z,16.89
2023-05-23T17:09:55.196Z,16.56
2023-05-23T17:12:22.626Z,16.77
2023-05-23T17:14:50.001Z,16.72
2023-05-23T17:17:17.344Z,16.60
2023-05-23T17:19:44.773Z,16.67
2023-05-23T17:22:12.235Z,16.71
2023-05-23T17:24:39.788Z,16.54
2023-05-23T17:27:08.168Z,16.75
2023-05-23T17:29:35.479Z,16.55
2023-05-23T17:32:03.059Z,16.63
2023-05-23T17:34:30.430Z,16.73
2023-05-23T17:36:58.009Z,16.51
2023-05-23T17:39:25.645Z,16.49
2023-05-23T17:41:53.041Z,16.39
2023-05-23T17:44:20.556Z,16.43
2023-05-23T17:46:47.999Z,16.39
2023-05-23T17:49:15.429Z,16.41
2023-05-23T17:51:42.840Z,16.60
2023-05-23T17:54:10.288Z,16.42
2023-05-23T17:56:37.799Z,16.51
2023-05-23T17:59:05.810Z,16.58
2023-05-23T18:01:34.543Z,16.54
2023-05-23T18:04:02.200Z,16.59
2023-05-23T18:06:29.565Z,16.71
2023-05-23T18:08:56.996Z,16.60
2023-05-23T18:11:25.749Z,16.60
2023-05-23T18:13:53.733Z,16.84
2023-05-23T18:16:21.446Z,16.94
2023-05-23T18:18:49.008Z,16.97
2023-05-23T18:21:18.185Z,17.02
2023-05-23T18:23:45.707Z,17.24
2023-05-23T18:26:13.421Z,16.76
2023-05-23T18:28:41.161Z,16.61
2023-05-23T18:31:08.528Z,16.76
2023-05-23T18:33:36.130Z,16.74
2023-05-23T18:36:03.778Z,16.77
2023-05-23T18:38:31.506Z,16.71
2023-05-23T18:40:58.910Z,16.69
2023-05-23T18:43:26.250Z,16.59
2023-05-23T18:45:53.571Z,16.52
2023-05-23T18:48:21.696Z,16.69
2023-05-23T18:50:48.980Z,16.66
2023-05-23T18:53:16.624Z,16.61
2023-05-23T18:55:43.990Z,16.49
2023-05-23T18:58:11.541Z,16.58
2023-05-23T19:00:38.847Z,16.71
2023-05-23T19:03:06.324Z,16.68
2023-05-23T19:05:33.723Z,16.46
2023-05-23T19:08:01.024Z,16.37
2023-05-23T19:10:28.312Z,16.30
2023-05-23T19:12:55.665Z,16.17
2023-05-23T19:15:22.942Z,16.23
2023-05-23T19:17:50.546Z,16.00
2023-05-23T19:20:19.953Z,15.94
2023-05-23T19:22:52.208Z,15.83
2023-05-23T19:25:21.698Z,15.85
2023-05-23T19:27:49.094Z,15.82
2023-05-23T19:30:16.823Z,15.92
2023-05-23T19:32:44.239Z,15.88
2023-05-23T19:35:12.753Z,15.89
2023-05-23T19:37:42.261Z,15.76
2023-05-23T19:40:10.629Z,15.86
2023-05-23T19:42:38.040Z,15.78
2023-05-23T19:45:06.659Z,15.70
2023-05-23T19:47:33.931Z,15.83
2023-05-23T19:50:01.373Z,15.59
2023-05-23T19:52:28.937Z,15.42
2023-05-23T19:54:56.347Z,15.56
2023-05-23T19:57:25.718Z,15.52
2023-05-23T19:59:53.025Z,15.39
2023-05-23T20:02:27.664Z,15.27
2023-05-23T20:04:55.124Z,15.25
2023-05-23T20:07:22.501Z,15.14
2023-05-23T20:09:49.843Z,15.02
2023-05-23T20:12:17.309Z,15.23
2023-05-23T20:14:47.758Z,15.08
2023-05-23T20:17:15.409Z,15.12
2023-05-23T20:19:42.701Z,14.94
2023-05-23T20:22:09.950Z,14.81
2023-05-23T20:24:39.193Z,14.79
2023-05-23T20:27:07.859Z,14.72
2023-05-23T20:29:35.179Z,14.69
2023-05-23T20:32:02.473Z,14.57
2023-05-23T20:34:30.189Z,14.49
2023-05-23T20:36:57.732Z,14.55
2023-05-23T20:39:25.126Z,14.54
2023-05-23T20:41:53.697Z,14.48
2023-05-23T20:44:20.955Z,14.30
2023-05-23T20:46:48.263Z,14.42
2023-05-23T20:49:15.850Z,14.44
2023-05-23T20:51:43.489Z,14.34
2023-05-23T20:54:12.910Z,14.41
2023-05-23T20:56:40.533Z,14.59
2023-05-23T20:59:08.874Z,14.61
2023-05-23T21:01:37.034Z,14.36
2023-05-23T21:04:04.365Z,14.31
2023-05-23T21:06:32.642Z,14.26
2023-05-23T21:08:59.902Z,14.48
2023-05-23T21:11:27.231Z,14.26
2023-05-23T21:13:54.561Z,14.51
2023-05-23T21:16:21.970Z,14.48
2023-05-23T21:18:49.302Z,14.35
2023-05-23T21:21:16.761Z,14.38
2023-05-23T21:23:44.276Z,13.82
2023-05-23T21:26:11.656Z,13.79
2023-05-23T21:28:39.019Z,13.67
2023-05-23T21:31:06.797Z,13.67
2023-05-23T21:33:34.210Z,13.43
2023-05-23T21:36:01.491Z,13.44
2023-05-23T21:38:29.696Z,13.58
2023-05-23T21:40:57.157Z,13.55
2023-05-23T21:43:24.755Z,13.50
2023-05-23T21:45:52.129Z,13.52
2023-05-23T21:48:19.451Z,13.64
2023-05-23T21:50:46.788Z,13.92
2023-05-23T21:53:14.245Z,14.00
2023-05-23T21:55:41.504Z,13.61
2023-05-23T21:58:08.922Z,13.56
2023-05-23T22:00:36.273Z,13.33
2023-05-23T22:03:03.653Z,13.25
2023-05-23T22:05:31.102Z,13.23
2023-05-23T22:07:58.444Z,13.03
2023-05-23T22:10:25.931Z,13.21
2023-05-23T22:12:53.285Z,13.14
2023-05-23T22:15:20.738Z,13.10
2023-05-23T22:17:48.086Z,13.20
2023-05-23T22:20:15.990Z,13.24
2023-05-23T22:22:43.297Z,13.07
2023-05-23T22:25:10.996Z,12.99
2023-05-23T22:27:38.439Z,12.85
2023-05-23T22:30:06.605Z,12.73
2023-05-23T22:32:34.116Z,12.78
2023-05-23T22:35:01.506Z,12.72
2023-05-23T22:37:28.824Z,12.64
2023-05-23T22:39:56.304Z,12.67
2023-05-23T22:42:23.681Z,12.93
2023-05-23T22:44:50.986Z,12.94
2023-05-23T22:47:18.570Z,12.98
2023-05-23T22:49:45.894Z,13.07
2023-05-23T22:52:13.249Z,12.99
2023-05-23T22:54:40.679Z,12.59
2023-05-23T22:57:07.971Z,12.83
2023-05-23T22:59:35.276Z,12.96
2023-05-23T23:02:02.680Z,13.19
2023-05-23T23:04:31.076Z,12.81
2023-05-23T23:06:59.361Z,12.80
2023-05-23T23:09:27.037Z,12.27
2023-05-23T23:11:54.806Z,12.22
2023-05-23T23:14:22.299Z,12.25
2023-05-23T23:16:49.830Z,12.55
2023-05-23T23:19:17.831Z,12.74
2023-05-23T23:21:45.189Z,12.78
2023-05-23T23:24:13.689Z,12.66
2023-05-23T23:26:41.032Z,12.62
2023-05-23T23:29:08.450Z,12.42
2023-05-23T23:31:36.007Z,12.50
2023-05-23T23:34:03.233Z,12.24
2023-05-23T23:36:30.555Z,12.10
2023-05-23T23:38:57.911Z,12.08
2023-05-23T23:41:26.851Z,12.15
2023-05-23T23:43:54.145Z,12.17
2023-05-23T23:46:21.746Z,12.23
2023-05-23T23:48:49.029Z,12.11
2023-05-23T23:51:16.530Z,12.02
2023-05-23T23:53:45.609Z,12.04
2023-05-23T23:56:14.527Z,11.94
2023-05-23T23:58:41.802Z,11.94
